Bowling Green Warren County Regional Airport
KBWG : rendu visible

Aérodrome :











RETROUVEZ-NOUS SUR...

 
LOGIN :

S'inscrire | Disclaimer

   EN    FR    IT 

 









Légende :    VFR   VFR Marginal   IFR   IFR Intensif   IFR Très Intensif
Visi : 
Plafond : 
>= 8 km
>= 3000ft
5 à 8 km
1000 à 3000 ft
1500m à 5 km
500 à 1000 ft
800 à 1500m
200 à 500 ft
< 800m
< 200 ft
Symboles :   Orages  Brouillard  Fortes neiges  Fortes précipitations  Vent > 20 kt






- Altitude de l'aérodrome : 547 ft


KBWG - Bowling Green Warren County Regional

DERNIER METAR :
  • 281153Z AUTO 00000KT 4SM BR OVC004 01/M02 A3012 RMK AO2 SLP200 70001 T00061017 10011 20000 53011

METARs EXPIRÉS :
  • 281053Z AUTO 36003KT 4SM BR OVC004 01/M02 A3009 RMK AO2 SLP193 T00061017
  • 281039Z AUTO 36004KT 4SM BR OVC004 01/M02 A3009 RMK AO2 T00061017
  • 281021Z AUTO 02004KT 4SM BR OVC005 01/M01 A3009 RMK AO2 T00111011
  • 280953Z AUTO 00000KT 4SM BR OVC004 01/M01 A3009 RMK AO2 SLP190 T00061011

TAF KBWG
Valide du 28 à 12h jusqu'au 29 à 12h UTC


281120Z 2812/2912 VRB03KT 4SM BR OVC004
FM281500 VRB03KT P6SM OVC008
FM281800 35003KT P6SM OVC015



MET'MAP, la Météo Aéronautique d'un coup d'oeil ! - Copyright ORBIFLY Décembre 2007 - Disclaimer

ORBIFLY MET'MAP TEAM :

Programmation & Développement : Alexandra Zaïnal
Sur une idée originale de : Baudouin d'Aumeries
Assistance à la programmation : Marc-Olivier Méhu
Soutien technique & logistique : Manuel Goepfert

Contact : metmap@orbifly.com




SOURCES & CREDITS :

   NOAA       Earth
Advisory